createdAt,value
2023-07-18T00:01:21.642Z,99.90
2023-07-18T00:03:54.530Z,99.90
2023-07-18T00:06:26.844Z,99.90
2023-07-18T00:09:01.878Z,99.90
2023-07-18T00:11:37.733Z,99.90
2023-07-18T00:14:14.506Z,99.90
2023-07-18T00:16:47.624Z,99.90
2023-07-18T00:19:18.556Z,99.90
2023-07-18T00:21:51.364Z,99.90
2023-07-18T00:24:30.271Z,99.90
2023-07-18T00:27:05.346Z,99.90
2023-07-18T00:29:37.980Z,99.90
2023-07-18T00:32:09.248Z,99.90
2023-07-18T00:34:45.661Z,99.90
2023-07-18T00:37:21.263Z,99.90
2023-07-18T00:39:55.942Z,99.90
2023-07-18T00:42:24.007Z,99.90
2023-07-18T00:44:57.418Z,99.90
2023-07-18T00:47:28.013Z,99.90
2023-07-18T00:49:59.526Z,99.90
2023-07-18T00:52:32.372Z,99.90
2023-07-18T00:55:04.774Z,99.90
2023-07-18T00:57:45.984Z,99.90
2023-07-18T01:00:15.846Z,99.90
2023-07-18T01:02:47.797Z,99.90
2023-07-18T01:05:23.518Z,99.90
2023-07-18T01:07:54.023Z,99.90
2023-07-18T01:10:28.313Z,99.90
2023-07-18T01:12:59.713Z,99.90
2023-07-18T01:15:31.118Z,99.90
2023-07-18T01:18:07.445Z,99.90
2023-07-18T01:20:37.999Z,99.90
2023-07-18T01:23:11.534Z,99.90
2023-07-18T01:25:41.191Z,99.90
2023-07-18T01:28:13.918Z,99.90
2023-07-18T01:30:44.215Z,99.90
2023-07-18T01:33:17.556Z,99.90
2023-07-18T01:35:48.029Z,99.90
2023-07-18T01:38:30.805Z,99.90
2023-07-18T01:41:08.406Z,99.90
2023-07-18T01:43:38.110Z,99.90
2023-07-18T01:46:08.652Z,99.90
2023-07-18T01:48:41.885Z,99.90
2023-07-18T01:51:14.861Z,99.90
2023-07-18T01:53:44.907Z,99.90
2023-07-18T01:56:18.030Z,99.90
2023-07-18T01:58:48.846Z,99.90
2023-07-18T02:01:21.628Z,99.90
2023-07-18T02:03:52.963Z,99.90
2023-07-18T02:06:26.220Z,99.90
2023-07-18T02:08:56.283Z,99.90
2023-07-18T02:11:29.027Z,99.90
2023-07-18T02:13:56.476Z,99.90
2023-07-18T02:16:26.798Z,99.90
2023-07-18T02:19:00.009Z,99.90
2023-07-18T02:21:30.154Z,99.90
2023-07-18T02:24:00.034Z,99.90
2023-07-18T02:26:33.000Z,99.90
2023-07-18T02:29:06.155Z,99.90
2023-07-18T02:31:34.336Z,99.90
2023-07-18T02:34:06.109Z,99.90
2023-07-18T02:36:33.913Z,99.90
2023-07-18T02:39:07.514Z,99.90
2023-07-18T02:41:40.332Z,99.90
2023-07-18T02:44:11.942Z,99.90
2023-07-18T02:46:44.138Z,99.90
2023-07-18T02:49:13.668Z,99.90
2023-07-18T02:51:46.457Z,99.90
2023-07-18T02:54:22.323Z,99.90
2023-07-18T02:56:55.085Z,99.90
2023-07-18T02:59:25.603Z,99.90
2023-07-18T03:01:58.491Z,99.90
2023-07-18T03:04:28.002Z,99.90
2023-07-18T03:07:02.283Z,99.90
2023-07-18T03:09:35.689Z,99.90
2023-07-18T03:12:08.458Z,99.90
2023-07-18T03:14:45.110Z,99.90
2023-07-18T03:17:14.870Z,99.90
2023-07-18T03:19:50.637Z,99.90
2023-07-18T03:22:20.994Z,99.90
2023-07-18T03:24:50.954Z,99.90
2023-07-18T03:27:20.700Z,99.90
2023-07-18T03:29:50.607Z,99.90
2023-07-18T03:32:24.485Z,99.90
2023-07-18T03:34:57.697Z,99.90
2023-07-18T03:37:29.753Z,99.90
2023-07-18T03:40:02.422Z,99.90
2023-07-18T03:42:32.707Z,99.90
2023-07-18T03:45:04.223Z,99.90
2023-07-18T03:47:33.954Z,99.90
2023-07-18T03:50:04.025Z,99.90
2023-07-18T03:52:37.112Z,99.90
2023-07-18T03:55:11.350Z,99.90
2023-07-18T03:57:41.849Z,99.90
2023-07-18T04:00:15.641Z,99.90
2023-07-18T04:02:47.347Z,99.90
2023-07-18T04:05:18.704Z,99.90
2023-07-18T04:07:49.494Z,99.90
2023-07-18T04:10:17.133Z,99.90
2023-07-18T04:12:47.583Z,99.90
2023-07-18T04:15:17.666Z,99.90
2023-07-18T04:17:54.015Z,99.90
2023-07-18T04:20:23.149Z,99.90
2023-07-18T04:22:53.333Z,99.90
2023-07-18T04:25:23.634Z,99.90
2023-07-18T04:27:53.414Z,99.90
2023-07-18T04:30:24.038Z,99.90
2023-07-18T04:32:54.526Z,99.90
2023-07-18T04:35:24.389Z,99.90
2023-07-18T04:37:56.565Z,99.90
2023-07-18T04:40:25.064Z,99.90
2023-07-18T04:42:54.686Z,99.90
2023-07-18T04:45:27.095Z,99.90
2023-07-18T04:48:00.327Z,99.90
2023-07-18T04:50:30.557Z,99.90
2023-07-18T04:53:03.146Z,99.90
2023-07-18T04:55:36.021Z,99.90
2023-07-18T04:58:11.232Z,99.90
2023-07-18T05:00:42.913Z,99.90
2023-07-18T05:03:13.355Z,99.90
2023-07-18T05:05:46.109Z,99.40
2023-07-18T05:08:18.011Z,99.50
2023-07-18T05:10:47.916Z,99.90
2023-07-18T05:13:18.228Z,99.90
2023-07-18T05:15:46.300Z,99.90
2023-07-18T05:18:13.784Z,99.90
2023-07-18T05:20:45.965Z,99.90
2023-07-18T05:23:15.970Z,99.90
2023-07-18T05:25:46.143Z,99.90
2023-07-18T05:28:17.970Z,99.90
2023-07-18T05:30:49.242Z,99.90
2023-07-18T05:33:23.379Z,99.70
2023-07-18T05:35:50.753Z,98.70
2023-07-18T05:38:20.458Z,98.30
2023-07-18T05:40:50.235Z,98.20
2023-07-18T05:43:22.531Z,98.40
2023-07-18T05:45:53.130Z,98.10
2023-07-18T05:48:20.577Z,97.70
2023-07-18T05:50:47.991Z,96.60
2023-07-18T05:53:15.454Z,94.50
2023-07-18T05:55:42.838Z,95.00
2023-07-18T05:58:11.023Z,93.60
2023-07-18T06:00:38.468Z,93.30
2023-07-18T06:03:29.707Z,92.30
2023-07-18T06:05:57.282Z,86.70
2023-07-18T06:08:24.679Z,82.40
2023-07-18T06:10:57.921Z,82.40
2023-07-18T06:13:26.154Z,83.70
2023-07-18T06:15:54.160Z,83.50
2023-07-18T06:18:21.930Z,83.40
2023-07-18T06:20:49.686Z,81.10
2023-07-18T06:23:17.364Z,79.60
2023-07-18T06:25:44.923Z,79.30
2023-07-18T06:28:12.409Z,77.10
2023-07-18T06:30:39.967Z,72.60
2023-07-18T06:33:07.549Z,68.00
2023-07-18T06:35:35.102Z,65.10
2023-07-18T06:38:02.465Z,63.80
2023-07-18T06:40:30.222Z,62.70
2023-07-18T06:42:58.481Z,63.70
2023-07-18T06:45:25.979Z,64.80
2023-07-18T06:47:53.725Z,66.30
2023-07-18T06:50:21.112Z,66.80
2023-07-18T06:52:48.859Z,66.30
2023-07-18T06:55:17.439Z,64.90
2023-07-18T06:57:45.209Z,62.30
2023-07-18T07:00:13.937Z,62.60
2023-07-18T07:02:41.673Z,60.50
2023-07-18T07:05:10.206Z,60.80
2023-07-18T07:07:38.565Z,59.80
2023-07-18T07:10:09.872Z,57.50
2023-07-18T07:12:38.017Z,58.70
2023-07-18T07:15:06.225Z,58.80
2023-07-18T07:17:33.702Z,56.70
2023-07-18T07:20:01.964Z,54.90
2023-07-18T07:22:29.428Z,54.20
2023-07-18T07:24:57.529Z,52.50
2023-07-18T07:27:24.922Z,51.10
2023-07-18T07:29:53.340Z,51.30
2023-07-18T07:32:20.902Z,51.50
2023-07-18T07:34:48.359Z,49.50
2023-07-18T07:37:15.775Z,49.50
2023-07-18T07:39:44.530Z,49.50
2023-07-18T07:42:11.961Z,49.20
2023-07-18T07:44:39.339Z,50.20
2023-07-18T07:47:06.985Z,49.50
2023-07-18T07:49:34.375Z,50.20
2023-07-18T07:52:01.747Z,48.10
2023-07-18T07:54:29.839Z,46.40
2023-07-18T07:56:57.236Z,46.20
2023-07-18T07:59:24.602Z,46.30
2023-07-18T08:01:53.749Z,46.60
2023-07-18T08:04:21.478Z,45.20
2023-07-18T08:06:48.940Z,45.30
2023-07-18T08:09:16.343Z,44.70
2023-07-18T08:11:44.261Z,44.50
2023-07-18T08:14:11.597Z,44.70
2023-07-18T08:16:39.175Z,45.00
2023-07-18T08:19:06.589Z,44.60
2023-07-18T08:21:33.989Z,45.20
2023-07-18T08:24:01.982Z,44.70
2023-07-18T08:26:29.377Z,47.00
2023-07-18T08:28:56.725Z,46.00
2023-07-18T08:31:24.277Z,44.30
2023-07-18T08:33:51.898Z,45.80
2023-07-18T08:36:19.401Z,45.60
2023-07-18T08:38:51.272Z,45.70
2023-07-18T08:41:21.380Z,46.10
2023-07-18T08:43:50.035Z,45.90
2023-07-18T08:46:18.144Z,44.50
2023-07-18T08:48:46.847Z,46.00
2023-07-18T08:51:15.387Z,45.40
2023-07-18T08:53:43.186Z,44.30
2023-07-18T08:56:11.102Z,44.90
2023-07-18T08:58:39.491Z,44.50
2023-07-18T09:01:10.612Z,44.40
2023-07-18T09:03:38.135Z,45.50
2023-07-18T09:06:19.386Z,44.00
2023-07-18T09:08:47.806Z,42.80
2023-07-18T09:11:19.586Z,44.20
2023-07-18T09:13:48.229Z,41.80
2023-07-18T09:16:21.982Z,42.90
2023-07-18T09:18:54.388Z,44.10
2023-07-18T09:21:23.574Z,45.30
2023-07-18T09:23:52.124Z,45.90
2023-07-18T09:26:21.448Z,45.20
2023-07-18T09:28:49.524Z,44.50
2023-07-18T09:31:22.003Z,44.00
2023-07-18T09:33:51.612Z,44.80
2023-07-18T09:36:22.739Z,44.90
2023-07-18T09:38:51.102Z,45.10
2023-07-18T09:41:21.660Z,44.30
2023-07-18T09:43:50.148Z,43.80
2023-07-18T09:46:18.496Z,44.10
2023-07-18T09:48:49.354Z,43.60
2023-07-18T09:51:23.922Z,46.80
2023-07-18T09:53:52.693Z,45.60
2023-07-18T09:56:21.062Z,45.10
2023-07-18T09:58:48.712Z,45.40
2023-07-18T10:01:21.748Z,46.10
2023-07-18T10:03:51.234Z,47.40
2023-07-18T10:06:19.031Z,46.20
2023-07-18T10:08:47.363Z,46.60
2023-07-18T10:11:15.723Z,45.10
2023-07-18T10:14:05.804Z,43.30
2023-07-18T10:16:37.124Z,44.60
2023-07-18T10:19:23.857Z,46.30
2023-07-18T10:21:57.876Z,45.90
2023-07-18T10:24:27.782Z,44.10
2023-07-18T10:27:00.033Z,45.00
2023-07-18T10:29:38.580Z,45.20
2023-07-18T10:32:10.375Z,46.50
2023-07-18T10:34:42.513Z,45.90
2023-07-18T10:37:10.068Z,44.10
2023-07-18T10:39:40.395Z,44.30
2023-07-18T10:42:20.858Z,46.20
2023-07-18T10:44:49.511Z,46.40
2023-07-18T10:47:19.856Z,44.80
2023-07-18T10:49:50.461Z,46.30
2023-07-18T10:52:19.379Z,44.50
2023-07-18T10:54:52.555Z,43.90
2023-07-18T10:57:37.315Z,43.80
2023-07-18T11:00:07.223Z,42.50
2023-07-18T11:02:42.850Z,44.20
2023-07-18T11:05:13.410Z,44.50
2023-07-18T11:07:42.557Z,43.80
2023-07-18T11:10:12.109Z,42.60
2023-07-18T11:12:40.370Z,44.80
2023-07-18T11:15:09.246Z,45.00
2023-07-18T11:17:37.200Z,44.60
2023-07-18T11:20:05.424Z,45.60
2023-07-18T11:22:35.337Z,46.10
2023-07-18T11:25:03.213Z,45.20
2023-07-18T11:27:32.699Z,44.30
2023-07-18T11:30:01.324Z,43.90
2023-07-18T11:32:47.925Z,43.20
2023-07-18T11:35:23.599Z,42.00
2023-07-18T11:37:55.212Z,43.60
2023-07-18T11:40:24.491Z,42.80
2023-07-18T11:42:54.526Z,43.50
2023-07-18T11:45:24.222Z,42.90
2023-07-18T11:47:56.222Z,43.50
2023-07-18T11:52:59.745Z,42.10
2023-07-18T11:55:27.450Z,42.90
2023-07-18T11:57:55.461Z,41.50
2023-07-18T12:00:23.364Z,42.50
2023-07-18T12:02:50.894Z,39.90
2023-07-18T12:05:18.589Z,40.50
2023-07-18T12:07:46.957Z,41.40
2023-07-18T12:10:16.705Z,40.80
2023-07-18T12:12:44.625Z,40.10
2023-07-18T12:15:13.765Z,40.20
2023-07-18T12:17:42.046Z,40.30
2023-07-18T12:20:10.465Z,39.90
2023-07-18T12:22:38.889Z,39.30
2023-07-18T12:25:07.122Z,41.50
2023-07-18T12:27:34.809Z,41.80
2023-07-18T12:32:32.401Z,39.00
2023-07-18T12:35:00.216Z,42.10
2023-07-18T12:37:27.814Z,41.10
2023-07-18T12:39:55.461Z,42.50
2023-07-18T12:42:23.199Z,40.30
2023-07-18T12:44:52.976Z,40.40
2023-07-18T12:47:20.558Z,40.10
2023-07-18T12:52:18.521Z,40.70
2023-07-18T12:54:46.550Z,40.20
2023-07-18T12:57:14.088Z,41.30
2023-07-18T12:59:41.576Z,41.10
2023-07-18T13:02:11.451Z,41.50
2023-07-18T13:04:39.113Z,40.20
2023-07-18T13:07:07.339Z,39.70
2023-07-18T13:09:35.058Z,40.10
2023-07-18T13:12:02.537Z,40.80
2023-07-18T13:14:30.080Z,38.10
2023-07-18T13:16:57.902Z,38.60
2023-07-18T13:19:25.502Z,40.30
2023-07-18T13:21:53.084Z,38.90
2023-07-18T13:24:20.813Z,40.20
2023-07-18T13:26:48.234Z,39.50
2023-07-18T13:29:15.704Z,41.80
2023-07-18T13:31:43.177Z,40.40
2023-07-18T13:34:12.639Z,39.90
2023-07-18T13:36:41.647Z,41.90
2023-07-18T13:39:08.973Z,39.10
2023-07-18T13:41:36.365Z,40.50
2023-07-18T13:44:04.701Z,39.90
2023-07-18T13:46:32.332Z,40.40
2023-07-18T13:48:59.932Z,39.90
2023-07-18T13:51:27.440Z,40.60
2023-07-18T13:53:54.802Z,40.80
2023-07-18T13:56:22.487Z,40.00
2023-07-18T13:58:50.356Z,39.60
2023-07-18T14:01:19.799Z,40.10
2023-07-18T14:03:47.837Z,39.00
2023-07-18T14:06:15.264Z,39.10
2023-07-18T14:08:43.826Z,41.50
2023-07-18T14:11:11.244Z,38.60
2023-07-18T14:13:43.120Z,40.00
2023-07-18T14:16:11.013Z,41.00
2023-07-18T14:18:38.502Z,40.20
2023-07-18T14:21:06.090Z,40.20
2023-07-18T14:23:33.683Z,40.30
2023-07-18T14:26:01.157Z,39.00
2023-07-18T14:28:31.512Z,38.60
2023-07-18T14:31:01.811Z,38.70
2023-07-18T14:33:30.901Z,39.50
2023-07-18T14:35:58.416Z,38.10
2023-07-18T14:38:28.339Z,39.00
2023-07-18T14:40:56.015Z,39.10
2023-07-18T14:43:31.806Z,39.80
2023-07-18T14:46:00.169Z,41.10
2023-07-18T14:48:30.015Z,40.40
2023-07-18T14:51:00.506Z,40.10
2023-07-18T14:53:27.949Z,39.20
2023-07-18T14:55:55.409Z,39.10
2023-07-18T14:58:23.263Z,37.80
2023-07-18T15:00:52.117Z,38.00
2023-07-18T15:03:21.463Z,38.80
2023-07-18T15:05:49.048Z,37.50
2023-07-18T15:08:19.399Z,38.90
2023-07-18T15:10:46.877Z,38.70
2023-07-18T15:13:17.486Z,37.80
2023-07-18T15:15:47.815Z,37.90
2023-07-18T15:18:19.620Z,38.20
2023-07-18T15:20:47.248Z,38.10
2023-07-18T15:23:20.221Z,39.00
2023-07-18T15:25:50.728Z,39.20
2023-07-18T15:28:18.827Z,40.40
2023-07-18T15:30:46.350Z,39.70
2023-07-18T15:33:26.633Z,39.20
2023-07-18T15:35:55.254Z,38.60
2023-07-18T15:38:22.899Z,39.80
2023-07-18T15:40:50.389Z,38.60
2023-07-18T15:43:20.954Z,38.60
2023-07-18T15:45:51.541Z,38.30
2023-07-18T15:48:19.334Z,39.50
2023-07-18T15:50:46.867Z,37.60
2023-07-18T15:53:15.155Z,37.70
2023-07-18T15:55:42.754Z,38.40
2023-07-18T15:58:11.085Z,39.40
2023-07-18T16:00:38.604Z,38.20
2023-07-18T16:03:06.171Z,38.50
2023-07-18T16:05:33.809Z,38.90
2023-07-18T16:08:03.426Z,39.40
2023-07-18T16:10:33.477Z,38.00
2023-07-18T16:13:00.936Z,38.60
2023-07-18T16:15:32.570Z,37.30
2023-07-18T16:18:04.378Z,37.70
2023-07-18T16:20:33.011Z,37.70
2023-07-18T16:23:00.900Z,38.10
2023-07-18T16:25:28.370Z,38.30
2023-07-18T16:27:56.426Z,37.50
2023-07-18T16:30:27.069Z,36.70
2023-07-18T16:32:55.566Z,36.70
2023-07-18T16:35:23.188Z,37.40
2023-07-18T16:37:50.825Z,38.00
2023-07-18T16:40:21.417Z,39.50
2023-07-18T16:42:49.212Z,40.00
2023-07-18T16:45:19.686Z,39.20
2023-07-18T16:47:52.769Z,39.40
2023-07-18T16:50:20.390Z,39.30
2023-07-18T16:52:48.267Z,39.20
2023-07-18T16:55:15.818Z,39.70
2023-07-18T16:57:48.545Z,39.30
2023-07-18T17:00:17.707Z,39.70
2023-07-18T17:02:45.243Z,39.80
2023-07-18T17:05:15.608Z,40.40
2023-07-18T17:07:43.230Z,40.70
2023-07-18T17:10:15.739Z,40.90
2023-07-18T17:12:44.120Z,40.90
2023-07-18T17:15:12.253Z,39.50
2023-07-18T17:17:40.169Z,40.20
2023-07-18T17:20:14.127Z,40.20
2023-07-18T17:22:45.036Z,40.20
2023-07-18T17:25:12.546Z,40.70
2023-07-18T17:27:42.280Z,40.90
2023-07-18T17:30:12.811Z,40.70
2023-07-18T17:32:43.162Z,41.90
2023-07-18T17:35:12.905Z,40.80
2023-07-18T17:37:42.654Z,40.70
2023-07-18T17:40:14.377Z,40.30
2023-07-18T17:42:44.026Z,40.70
2023-07-18T17:45:13.624Z,40.60
2023-07-18T17:47:48.321Z,41.00
2023-07-18T17:50:18.248Z,41.10
2023-07-18T17:52:45.790Z,41.20
2023-07-18T17:55:13.340Z,41.20
2023-07-18T17:57:40.936Z,42.20
2023-07-18T18:00:10.118Z,41.60
2023-07-18T18:02:40.152Z,41.90
2023-07-18T18:05:34.121Z,42.00
2023-07-18T18:08:02.667Z,42.00
2023-07-18T18:10:33.353Z,42.40
2023-07-18T18:13:01.312Z,42.70
2023-07-18T18:15:32.246Z,42.90
2023-07-18T18:18:00.376Z,42.80
2023-07-18T18:20:27.936Z,44.00
2023-07-18T18:23:00.798Z,43.70
2023-07-18T18:25:31.607Z,44.60
2023-07-18T18:28:00.173Z,44.90
2023-07-18T18:30:27.833Z,45.30
2023-07-18T18:32:55.417Z,45.90
2023-07-18T18:35:23.150Z,45.70
2023-07-18T18:37:50.726Z,46.60
2023-07-18T18:40:21.006Z,47.30
2023-07-18T18:42:48.556Z,47.70
2023-07-18T18:45:19.140Z,48.60
2023-07-18T18:47:49.819Z,48.80
2023-07-18T18:50:18.362Z,49.90
2023-07-18T18:52:46.269Z,51.40
2023-07-18T18:55:19.902Z,53.80
2023-07-18T18:57:50.806Z,53.90
2023-07-18T19:00:18.872Z,53.10
2023-07-18T19:02:46.430Z,53.40
2023-07-18T19:05:13.933Z,53.30
2023-07-18T19:07:42.285Z,53.70
2023-07-18T19:10:14.746Z,53.50
2023-07-18T19:12:42.271Z,53.10
2023-07-18T19:15:12.542Z,53.30
2023-07-18T19:17:40.501Z,53.20
2023-07-18T19:20:10.332Z,53.40
2023-07-18T19:22:40.874Z,54.90
2023-07-18T19:25:11.233Z,55.60
2023-07-18T19:27:39.165Z,55.60
2023-07-18T19:30:07.432Z,55.30
2023-07-18T19:32:34.995Z,56.10
2023-07-18T19:35:04.057Z,56.40
2023-07-18T19:37:31.863Z,56.40
2023-07-18T19:40:05.297Z,56.40
2023-07-18T19:42:35.634Z,56.30
2023-07-18T19:45:03.219Z,56.80
2023-07-18T19:47:32.968Z,56.70
2023-07-18T19:50:00.764Z,56.10
2023-07-18T19:52:28.233Z,56.40
2023-07-18T19:55:01.031Z,57.70
2023-07-18T19:57:31.345Z,57.80
2023-07-18T20:00:01.595Z,58.40
2023-07-18T20:02:29.168Z,58.40
2023-07-18T20:04:56.746Z,58.60
2023-07-18T20:07:24.202Z,59.00
2023-07-18T20:09:53.943Z,59.20
2023-07-18T20:12:26.118Z,59.50
2023-07-18T20:14:56.490Z,60.00
2023-07-18T20:17:27.042Z,60.40
2023-07-18T20:19:54.615Z,60.10
2023-07-18T20:22:24.144Z,60.30
2023-07-18T20:24:51.879Z,61.50
2023-07-18T20:27:19.739Z,60.90
2023-07-18T20:29:47.306Z,61.00
2023-07-18T20:32:14.823Z,62.00
2023-07-18T20:34:44.382Z,62.40
2023-07-18T20:37:12.069Z,62.50
2023-07-18T20:39:40.045Z,63.70
2023-07-18T20:42:13.414Z,65.20
2023-07-18T20:44:45.369Z,66.50
2023-07-18T20:47:12.829Z,68.80
2023-07-18T20:49:40.278Z,68.80
2023-07-18T20:52:08.076Z,69.60
2023-07-18T20:54:38.186Z,70.30
2023-07-18T20:57:08.638Z,70.90
2023-07-18T20:59:41.639Z,71.90
2023-07-18T21:02:09.274Z,72.60
2023-07-18T21:04:36.695Z,75.20
2023-07-18T21:07:04.915Z,84.90
2023-07-18T21:09:32.609Z,86.30
2023-07-18T21:12:03.293Z,85.70
2023-07-18T21:14:30.830Z,90.70
2023-07-18T21:17:02.275Z,90.60
2023-07-18T21:19:32.824Z,92.50
2023-07-18T21:22:05.832Z,91.80
2023-07-18T21:24:36.141Z,94.90
2023-07-18T21:27:06.637Z,95.60
2023-07-18T21:29:39.684Z,94.60
2023-07-18T21:32:10.571Z,94.00
2023-07-18T21:34:38.461Z,95.90
2023-07-18T21:37:12.636Z,94.30
2023-07-18T21:39:43.243Z,94.40
2023-07-18T21:42:14.304Z,93.50
2023-07-18T21:44:44.546Z,95.50
2023-07-18T21:47:12.337Z,94.60
2023-07-18T21:49:43.394Z,94.90
2023-07-18T21:52:14.064Z,96.00
2023-07-18T21:54:41.462Z,95.80
2023-07-18T21:57:17.235Z,96.50
2023-07-18T21:59:47.588Z,97.90
2023-07-18T22:02:36.284Z,97.60
2023-07-18T22:05:07.146Z,99.00
2023-07-18T22:07:34.790Z,98.60
2023-07-18T22:10:03.290Z,98.70
2023-07-18T22:12:31.025Z,98.80
2023-07-18T22:14:58.511Z,98.90
2023-07-18T22:17:26.122Z,98.90
2023-07-18T22:19:53.707Z,99.20
2023-07-18T22:22:21.128Z,99.90
2023-07-18T22:24:53.912Z,99.50
2023-07-18T22:27:25.939Z,99.60
2023-07-18T22:29:56.397Z,99.70
2023-07-18T22:32:23.759Z,99.90
2023-07-18T22:34:51.634Z,99.90
2023-07-18T22:37:21.399Z,99.90
2023-07-18T22:39:49.651Z,99.90
2023-07-18T22:42:22.018Z,99.90
2023-07-18T22:44:50.329Z,99.90
2023-07-18T22:47:20.388Z,99.90
2023-07-18T22:49:51.088Z,99.90
2023-07-18T22:52:19.498Z,99.90
2023-07-18T22:54:51.299Z,99.90
2023-07-18T22:57:23.294Z,99.90
2023-07-18T22:59:53.835Z,99.90
2023-07-18T23:02:24.775Z,99.90
2023-07-18T23:04:55.374Z,99.90
2023-07-18T23:07:25.141Z,99.90
2023-07-18T23:09:55.657Z,99.90
2023-07-18T23:12:26.057Z,99.90
2023-07-18T23:14:59.004Z,99.90
2023-07-18T23:17:29.404Z,99.90
2023-07-18T23:20:17.382Z,99.90
2023-07-18T23:22:47.378Z,99.90
2023-07-18T23:25:20.461Z,99.90
2023-07-18T23:27:50.868Z,99.90
2023-07-18T23:30:21.404Z,99.90
2023-07-18T23:32:51.743Z,99.90
2023-07-18T23:35:25.888Z,99.90
2023-07-18T23:37:57.191Z,99.90
2023-07-18T23:40:24.738Z,99.90
2023-07-18T23:42:55.029Z,99.90
2023-07-18T23:45:28.603Z,99.90
2023-07-18T23:47:59.578Z,99.90
2023-07-18T23:50:33.308Z,99.90
2023-07-18T23:53:04.338Z,99.90
2023-07-18T23:55:34.513Z,99.90
2023-07-18T23:58:07.513Z,99.90
